Time;durP1;ratioP1;P1;durP2;ratioP2;P2;SDS_P1;SDS_P2;PMS_P1;PMS_P2;Temp;Humidity;BMP_temperature;BMP_pressure;BME280_temperature;BME280_humidity;BME280_pressure;Samples;Min_cycle;Max_cycle;Signal;HPM_P1;HPM_P2
2022/07/09 00:01:39;;;;;;;7.90;3.13;;;17.00;97.80;;;;;;5074427;28;20435;-52
2022/07/09 00:04:06;;;;;;;8.87;3.33;;;17.20;97.90;;;;;;5074719;28;20606;-52
2022/07/09 00:06:32;;;;;;;6.97;2.30;;;17.30;98.00;;;;;;5074847;28;20432;-52
2022/07/09 00:09:02;;;;;;;5.00;2.30;;;17.30;98.20;;;;;;5074191;28;20459;-52
2022/07/09 00:11:29;;;;;;;13.37;3.50;;;17.40;98.30;;;;;;5074576;28;20915;-52
2022/07/09 00:13:56;;;;;;;3.47;2.40;;;17.20;98.40;;;;;;5074334;28;20428;-52
2022/07/09 00:16:22;;;;;;;7.47;2.67;;;17.10;98.40;;;;;;5074163;28;20436;-52
2022/07/09 00:19:00;;;;;;;6.13;2.57;;;17.30;98.50;;;;;;5074266;28;20465;-52
2022/07/09 00:21:27;;;;;;;5.57;3.03;;;17.30;98.50;;;;;;5074401;28;20938;-52
2022/07/09 00:23:53;;;;;;;5.77;2.87;;;17.00;98.50;;;;;;5073005;28;20467;-52
2022/07/09 00:26:21;;;;;;;5.03;2.30;;;17.10;98.60;;;;;;5074447;28;20457;-52
2022/07/09 00:28:48;;;;;;;5.83;2.30;;;17.00;98.60;;;;;;5074042;28;20805;-52
2022/07/09 00:31:14;;;;;;;5.20;2.53;;;17.10;98.70;;;;;;5074268;28;20435;-52
2022/07/09 00:33:41;;;;;;;6.53;2.37;;;16.70;98.60;;;;;;5073924;28;20432;-52
2022/07/09 00:36:09;;;;;;;4.23;2.50;;;16.90;99.10;;;;;;5074378;28;20433;-52
2022/07/09 00:38:36;;;;;;;7.70;3.00;;;16.80;98.70;;;;;;5073817;28;20438;-52
2022/07/09 00:41:02;;;;;;;3.10;2.47;;;16.70;98.70;;;;;;5074664;28;20807;-51
2022/07/09 00:43:30;;;;;;;5.70;2.60;;;16.70;98.60;;;;;;5073554;28;20478;-51
2022/07/09 00:46:16;;;;;;;3.80;2.33;;;16.70;98.80;;;;;;5073691;28;20785;-51
2022/07/09 00:48:43;;;;;;;8.57;2.13;;;16.70;98.90;;;;;;5073259;28;20441;-51
2022/07/09 00:51:13;;;;;;;7.90;3.10;;;16.50;98.90;;;;;;5073794;28;20429;-51
2022/07/09 00:53:40;;;;;;;5.50;2.70;;;16.40;98.80;;;;;;5074003;28;20435;-51
2022/07/09 00:56:21;;;;;;;5.60;3.27;;;16.50;98.90;;;;;;5073877;28;20473;-52
2022/07/09 00:58:48;;;;;;;7.83;2.93;;;16.50;99.00;;;;;;5073335;28;21001;-52
2022/07/09 01:01:15;;;;;;;8.00;2.77;;;16.40;99.00;;;;;;5073750;28;20429;-52
2022/07/09 01:03:42;;;;;;;6.53;2.77;;;16.50;99.20;;;;;;5073609;28;20876;-51
2022/07/09 01:06:15;;;;;;;7.97;2.80;;;16.40;99.20;;;;;;5073759;28;20462;-51
2022/07/09 01:08:43;;;;;;;7.10;2.80;;;16.40;99.30;;;;;;5071938;28;20437;-52
2022/07/09 01:11:09;;;;;;;6.80;2.83;;;16.30;99.40;;;;;;5073868;28;20443;-52
2022/07/09 01:13:36;;;;;;;8.00;3.30;;;16.30;99.40;;;;;;5073568;28;20431;-51
2022/07/09 01:16:04;;;;;;;7.90;3.17;;;16.30;99.60;;;;;;5072743;28;20438;-51
2022/07/09 01:18:39;;;;;;;12.07;3.13;;;16.30;99.50;;;;;;5073099;28;20430;-51
2022/07/09 01:21:07;;;;;;;7.50;2.47;;;16.20;99.70;;;;;;5073414;28;20433;-51
2022/07/09 01:23:34;;;;;;;6.33;2.47;;;16.20;99.90;;;;;;5073071;28;20469;-51
2022/07/09 01:26:01;;;;;;;5.57;2.87;;;16.10;99.90;;;;;;5073236;28;20495;-51
2022/07/09 01:28:28;;;;;;;5.73;2.47;;;16.10;99.90;;;;;;5072824;28;20878;-51
2022/07/09 01:30:54;;;;;;;8.13;2.90;;;16.30;99.90;;;;;;5073265;28;20433;-51
2022/07/09 01:33:21;;;;;;;9.57;2.80;;;16.20;99.90;;;;;;5072994;28;20923;-51
2022/07/09 01:35:47;;;;;;;8.30;3.73;;;15.60;99.90;;;;;;5073141;28;20799;-52
2022/07/09 01:38:15;;;;;;;9.27;3.20;;;16.00;99.90;;;;;;5072993;28;20845;-51
2022/07/09 01:40:42;;;;;;;8.47;2.70;;;16.40;99.90;;;;;;5072616;28;20470;-51
2022/07/09 01:43:08;;;;;;;9.73;3.57;;;15.70;99.90;;;;;;5073013;28;20466;-51
2022/07/09 01:45:35;;;;;;;6.43;3.20;;;15.90;99.90;;;;;;5071594;28;20449;-52
2022/07/09 01:48:01;;;;;;;9.80;3.70;;;15.90;99.90;;;;;;5072886;28;20491;-51
2022/07/09 01:50:28;;;;;;;11.30;3.47;;;15.60;99.90;;;;;;5072669;28;20520;-51
2022/07/09 01:52:55;;;;;;;6.83;3.60;;;15.80;99.90;;;;;;5072929;28;20439;-51
2022/07/09 01:55:28;;;;;;;5.83;3.13;;;15.30;99.90;;;;;;5071729;28;20404;-51
2022/07/09 01:57:54;;;;;;;6.70;3.37;;;15.80;99.90;;;;;;5072837;28;20434;-51
2022/07/09 02:00:21;;;;;;;6.53;2.67;;;15.70;99.90;;;;;;5072090;28;20958;-51
2022/07/09 02:02:48;;;;;;;13.17;5.00;;;15.20;99.90;;;;;;5072357;28;20529;-52
2022/07/09 02:05:15;;;;;;;6.23;3.37;;;15.70;99.90;;;;;;5072522;28;20430;-51
2022/07/09 02:07:42;;;;;;;9.50;3.57;;;15.60;99.90;;;;;;5072479;28;20438;-51
2022/07/09 02:10:09;;;;;;;9.37;3.20;;;15.60;99.90;;;;;;5072046;28;20461;-52
2022/07/09 02:12:37;;;;;;;7.97;3.43;;;15.60;99.90;;;;;;5072468;28;20434;-51
2022/07/09 02:15:04;;;;;;;9.10;4.30;;;15.60;99.90;;;;;;5072307;28;20426;-51
2022/07/09 02:17:32;;;;;;;7.80;3.77;;;15.50;99.90;;;;;;5072012;28;20799;-51
2022/07/09 02:19:58;;;;;;;6.80;3.23;;;15.50;99.90;;;;;;5071778;28;20453;-52
2022/07/09 02:22:25;;;;;;;7.90;3.53;;;15.50;99.90;;;;;;5072051;28;20446;-52
2022/07/09 02:24:52;;;;;;;6.93;3.67;;;15.40;99.90;;;;;;5072086;28;20474;-51
2022/07/09 02:27:18;;;;;;;7.40;4.13;;;15.40;99.90;;;;;;5070675;28;20442;-51
2022/07/09 02:29:46;;;;;;;9.73;4.20;;;15.40;99.90;;;;;;5071558;28;21005;-51
2022/07/09 02:32:13;;;;;;;6.20;4.07;;;15.60;99.90;;;;;;5071976;28;20448;-52
2022/07/09 02:34:39;;;;;;;7.87;3.93;;;15.30;99.90;;;;;;5071909;28;20425;-52
2022/07/09 02:37:06;;;;;;;8.30;4.30;;;15.30;99.90;;;;;;5072090;28;20437;-51
2022/07/09 02:39:33;;;;;;;6.83;4.13;;;15.30;99.90;;;;;;5071668;28;20465;-51
2022/07/09 02:42:00;;;;;;;6.93;3.73;;;15.20;99.90;;;;;;5071854;28;20439;-52
2022/07/09 02:44:27;;;;;;;5.63;3.40;;;14.90;99.90;;;;;;5071814;28;20469;-51
2022/07/09 02:46:55;;;;;;;7.73;4.17;;;15.30;99.90;;;;;;5071566;28;20503;-52
2022/07/09 02:49:23;;;;;;;6.50;4.27;;;15.60;99.90;;;;;;5071336;28;20497;-51
2022/07/09 02:51:49;;;;;;;8.40;4.13;;;15.40;99.90;;;;;;5071923;28;20502;-51
2022/07/09 02:54:16;;;;;;;5.13;3.60;;;15.40;99.90;;;;;;5072142;28;20452;-52
2022/07/09 02:56:43;;;;;;;9.00;3.87;;;15.50;99.90;;;;;;5071915;28;20426;-51
2022/07/09 02:59:10;;;;;;;8.33;3.70;;;15.50;99.90;;;;;;5071207;28;20561;-51
2022/07/09 03:01:36;;;;;;;7.63;3.73;;;15.10;99.90;;;;;;5071634;28;20434;-52
2022/07/09 03:04:05;;;;;;;6.13;3.53;;;15.50;99.90;;;;;;5070218;28;20469;-51
2022/07/09 03:06:31;;;;;;;13.00;4.30;;;15.70;99.90;;;;;;5071546;28;20426;-51
2022/07/09 03:08:58;;;;;;;7.50;3.70;;;15.60;99.90;;;;;;5071290;28;21000;-51
2022/07/09 03:11:25;;;;;;;9.70;4.00;;;15.70;99.90;;;;;;5071989;28;20461;-52
2022/07/09 03:13:51;;;;;;;4.80;3.43;;;15.70;99.90;;;;;;5071426;28;20405;-51
2022/07/09 03:16:18;;;;;;;7.13;3.60;;;15.50;99.90;;;;;;5071111;28;20486;-52
2022/07/09 03:18:44;;;;;;;5.43;3.30;;;15.60;99.90;;;;;;5069623;28;20533;-52
2022/07/09 03:21:12;;;;;;;10.33;3.73;;;15.70;99.90;;;;;;5071503;28;20422;-51
2022/07/09 03:23:39;;;;;;;8.00;3.70;;;15.60;99.90;;;;;;5071368;28;20477;-52
2022/07/09 03:26:06;;;;;;;11.43;4.43;;;15.70;99.90;;;;;;5071347;28;20852;-52
2022/07/09 03:28:33;;;;;;;7.00;3.67;;;15.80;99.90;;;;;;5070821;28;20434;-51
2022/07/09 03:31:00;;;;;;;8.33;3.80;;;15.80;99.90;;;;;;5071216;28;20433;-51
2022/07/09 03:33:27;;;;;;;4.83;3.07;;;15.90;99.90;;;;;;5071269;28;20429;-52
2022/07/09 03:35:54;;;;;;;7.23;3.67;;;15.80;99.90;;;;;;5071331;28;20525;-51
2022/07/09 03:38:23;;;;;;;7.30;3.97;;;15.80;99.90;;;;;;5071122;28;20945;-51
2022/07/09 03:40:49;;;;;;;6.07;3.53;;;15.70;99.90;;;;;;5070985;28;20461;-51
2022/07/09 03:43:16;;;;;;;9.37;3.40;;;15.80;99.90;;;;;;5070778;28;20496;-51
2022/07/09 03:45:43;;;;;;;5.53;3.73;;;15.80;99.90;;;;;;5071282;28;20442;-52
2022/07/09 03:48:10;;;;;;;5.37;3.07;;;15.90;99.90;;;;;;5070971;28;20446;-52
2022/07/09 03:50:37;;;;;;;7.30;3.20;;;15.80;99.90;;;;;;5070772;28;20461;-51
2022/07/09 03:53:03;;;;;;;8.60;3.10;;;16.20;99.90;;;;;;5071200;28;20441;-52
2022/07/09 03:55:31;;;;;;;8.43;3.90;;;15.90;99.90;;;;;;5071257;28;20781;-51
2022/07/09 03:57:58;;;;;;;6.80;3.10;;;16.10;99.90;;;;;;5069687;28;20942;-51
2022/07/09 04:00:25;;;;;;;10.70;3.10;;;16.10;99.90;;;;;;5070745;28;20869;-51
2022/07/09 04:02:52;;;;;;;5.13;2.63;;;16.00;99.90;;;;;;5071249;28;20444;-51
2022/07/09 04:05:18;;;;;;;5.33;3.00;;;16.00;99.90;;;;;;5070943;28;20488;-51
2022/07/09 04:07:45;;;;;;;5.90;3.10;;;16.10;99.90;;;;;;5070898;28;20453;-51
2022/07/09 04:10:12;;;;;;;5.07;3.00;;;16.10;99.90;;;;;;5070487;28;20457;-51
2022/07/09 04:12:39;;;;;;;4.90;2.97;;;16.10;99.90;;;;;;5069456;28;20471;-51
2022/07/09 04:15:07;;;;;;;8.87;3.47;;;16.10;99.90;;;;;;5070909;28;20425;-51
2022/07/09 04:17:34;;;;;;;5.40;2.90;;;16.10;99.90;;;;;;5070819;28;20430;-51
2022/07/09 04:20:01;;;;;;;8.37;3.13;;;16.10;99.90;;;;;;5073807;28;20978;-51
2022/07/09 04:22:28;;;;;;;7.43;2.77;;;16.10;99.90;;;;;;5074521;28;20434;-52
2022/07/09 04:24:54;;;;;;;6.30;3.27;;;16.30;99.90;;;;;;5074175;28;21012;-51
2022/07/09 04:27:21;;;;;;;5.53;2.90;;;16.20;99.90;;;;;;5074186;28;20993;-51
2022/07/09 04:29:49;;;;;;;7.50;3.07;;;16.20;99.90;;;;;;5073994;28;20946;-51
2022/07/09 04:32:16;;;;;;;7.87;4.00;;;16.20;99.90;;;;;;5074418;28;20439;-52
2022/07/09 04:34:42;;;;;;;8.17;3.20;;;16.30;99.90;;;;;;5074054;28;20429;-51
2022/07/09 04:37:09;;;;;;;5.20;2.80;;;16.30;99.90;;;;;;5074228;28;20857;-51
2022/07/09 04:39:36;;;;;;;6.50;3.30;;;16.30;99.90;;;;;;5073741;28;20465;-51
2022/07/09 04:42:02;;;;;;;6.07;2.83;;;16.30;99.90;;;;;;5074465;28;20439;-51
2022/07/09 04:44:29;;;;;;;8.47;3.53;;;16.60;99.90;;;;;;5074095;28;20898;-51
2022/07/09 04:46:57;;;;;;;9.03;3.37;;;16.30;99.90;;;;;;5074001;28;20431;-51
2022/07/09 04:49:24;;;;;;;8.70;3.20;;;16.30;99.90;;;;;;5073660;28;20424;-51
2022/07/09 04:51:51;;;;;;;9.63;3.63;;;16.30;99.90;;;;;;5075019;28;20917;-51
2022/07/09 04:54:17;;;;;;;5.63;2.90;;;16.40;99.90;;;;;;5073956;28;20898;-52
2022/07/09 04:56:44;;;;;;;8.50;2.83;;;16.40;99.90;;;;;;5073770;28;20426;-52
2022/07/09 04:59:10;;;;;;;7.90;2.50;;;16.50;99.90;;;;;;5073329;28;20458;-51
2022/07/09 05:01:37;;;;;;;8.47;4.07;;;16.60;99.90;;;;;;5073696;28;20848;-52
2022/07/09 05:04:05;;;;;;;6.83;3.07;;;16.40;99.90;;;;;;5073563;28;20483;-51
2022/07/09 05:06:31;;;;;;;5.30;2.63;;;16.60;99.90;;;;;;5074355;28;20862;-51
2022/07/09 05:08:58;;;;;;;6.13;3.40;;;16.60;99.90;;;;;;5073190;28;20463;-51
2022/07/09 05:11:25;;;;;;;5.33;3.23;;;16.40;99.90;;;;;;5072303;28;20453;-51
2022/07/09 05:13:51;;;;;;;8.97;3.07;;;16.50;99.90;;;;;;5073556;28;20799;-51
2022/07/09 05:16:18;;;;;;;8.73;2.90;;;16.70;99.90;;;;;;5073215;28;20434;-51
2022/07/09 05:18:45;;;;;;;6.33;3.20;;;16.50;99.90;;;;;;5073166;28;20488;-52
2022/07/09 05:21:13;;;;;;;6.43;2.70;;;16.80;99.90;;;;;;5073146;28;20429;-51
2022/07/09 05:23:39;;;;;;;8.40;2.83;;;16.90;99.90;;;;;;5073392;28;20433;-50
2022/07/09 05:26:06;;;;;;;14.93;3.20;;;16.80;99.90;;;;;;5073294;28;20485;-50
2022/07/09 05:28:33;;;;;;;6.93;2.63;;;16.90;99.90;;;;;;5072682;28;20437;-51
2022/07/09 05:30:59;;;;;;;11.77;3.13;;;16.80;99.90;;;;;;5073106;28;20932;-50
2022/07/09 05:33:26;;;;;;;7.63;2.97;;;17.00;99.90;;;;;;5073139;28;20436;-50
2022/07/09 05:35:54;;;;;;;7.90;2.97;;;17.40;99.90;;;;;;5072859;28;20442;-50
2022/07/09 05:38:22;;;;;;;6.00;2.57;;;17.10;99.90;;;;;;5072902;28;20946;-50
2022/07/09 05:40:48;;;;;;;6.63;3.07;;;17.20;99.90;;;;;;5072627;28;20504;-50
2022/07/09 05:43:15;;;;;;;5.43;2.43;;;17.20;99.90;;;;;;5072733;28;20793;-50
2022/07/09 05:45:44;;;;;;;4.43;2.57;;;17.20;99.90;;;;;;5073028;28;20545;-50
2022/07/09 05:48:11;;;;;;;5.20;2.70;;;17.50;99.90;;;;;;5072787;28;20472;-50
2022/07/09 05:50:37;;;;;;;4.23;2.87;;;17.40;99.90;;;;;;5072416;28;20461;-50
2022/07/09 05:53:04;;;;;;;5.93;2.80;;;17.40;99.90;;;;;;5072742;28;20484;-50
2022/07/09 05:55:43;;;;;;;5.77;3.60;;;17.60;99.90;;;;;;5071148;28;20944;-50
2022/07/09 05:58:12;;;;;;;3.77;2.87;;;17.70;99.90;;;;;;5072561;28;20434;-50
2022/07/09 06:00:39;;;;;;;8.47;2.60;;;18.10;99.90;;;;;;5072124;28;20460;-50
2022/07/09 06:03:30;;;;;;;6.13;2.90;;;17.70;99.90;;;;;;5072340;28;20454;-50
2022/07/09 06:05:56;;;;;;;8.40;3.10;;;17.90;99.90;;;;;;5063333;28;20995;-51
2022/07/09 06:08:23;;;;;;;6.00;3.30;;;17.90;99.90;;;;;;5072156;28;20804;-50
2022/07/09 06:10:51;;;;;;;8.40;3.33;;;17.90;99.90;;;;;;5072207;28;20458;-50
2022/07/09 06:13:28;;;;;;;9.90;3.43;;;17.40;99.80;;;;;;5072327;28;20439;-50
2022/07/09 06:15:55;;;;;;;4.77;2.50;;;18.00;99.90;;;;;;5072343;28;20428;-51
2022/07/09 06:18:31;;;;;;;5.80;2.97;;;18.10;99.90;;;;;;5072041;28;20448;-50
2022/07/09 06:20:58;;;;;;;4.63;2.63;;;18.20;99.70;;;;;;5072301;28;20507;-50
2022/07/09 06:23:24;;;;;;;6.77;3.03;;;18.30;99.50;;;;;;5072137;28;20521;-50
2022/07/09 06:25:52;;;;;;;5.43;2.70;;;18.30;99.40;;;;;;5071985;28;20471;-51
2022/07/09 06:28:20;;;;;;;4.53;2.63;;;18.50;99.40;;;;;;5072140;28;20452;-50
2022/07/09 06:30:46;;;;;;;4.77;2.50;;;18.60;99.30;;;;;;5071453;28;20641;-51
2022/07/09 06:33:13;;;;;;;5.83;3.03;;;18.40;99.20;;;;;;5071836;28;20763;-50
2022/07/09 06:35:40;;;;;;;7.80;3.20;;;18.50;99.00;;;;;;5070736;28;20503;-51
2022/07/09 06:38:06;;;;;;;6.03;3.20;;;18.50;98.90;;;;;;5071846;28;20765;-51
2022/07/09 06:40:34;;;;;;;4.90;2.40;;;18.60;98.90;;;;;;5072954;22;20504;-46
2022/07/09 06:43:02;;;;;;;5.13;2.90;;;18.70;98.80;;;;;;5052772;28;20537;-44
2022/07/09 06:45:43;;;;;;;4.60;2.50;;;18.70;98.70;;;;;;5034841;28;20571;-45
2022/07/09 06:48:10;;;;;;;4.87;2.93;;;18.70;98.50;;;;;;5034689;28;20446;-45
2022/07/09 06:50:36;;;;;;;5.17;2.83;;;18.80;98.50;;;;;;5034258;28;20472;-44
2022/07/09 06:53:03;;;;;;;4.33;2.87;;;19.00;98.60;;;;;;5052305;28;20438;-44
2022/07/09 06:55:30;;;;;;;8.20;3.67;;;18.90;98.40;;;;;;5052073;28;20929;-45
2022/07/09 06:57:59;;;;;;;8.47;3.47;;;19.20;98.50;;;;;;5052047;28;20785;-45
2022/07/09 07:00:27;;;;;;;8.53;3.07;;;19.20;98.20;;;;;;5051656;28;20523;-45
2022/07/09 07:02:59;;;;;;;6.53;2.90;;;19.20;97.80;;;;;;5051995;28;20948;-45
2022/07/09 07:05:25;;;;;;;4.97;2.60;;;19.30;97.60;;;;;;5051807;28;20564;-45
2022/07/09 07:07:52;;;;;;;8.13;2.70;;;19.30;97.50;;;;;;5051909;28;20438;-45
2022/07/09 07:10:18;;;;;;;4.10;2.70;;;19.20;97.40;;;;;;5051280;28;20977;-45
2022/07/09 07:12:45;;;;;;;4.40;2.50;;;19.30;97.40;;;;;;5034272;28;20445;-45
2022/07/09 07:15:12;;;;;;;5.37;2.57;;;19.30;97.30;;;;;;5051745;28;20940;-45
2022/07/09 07:17:40;;;;;;;5.63;2.60;;;19.40;97.40;;;;;;5051883;28;20473;-45
2022/07/09 07:20:07;;;;;;;6.23;2.20;;;19.40;97.30;;;;;;5051687;28;20458;-45
2022/07/09 07:22:34;;;;;;;5.23;2.50;;;19.50;97.30;;;;;;5052364;28;20433;-45
2022/07/09 07:25:01;;;;;;;8.93;2.90;;;19.70;97.20;;;;;;5052608;28;20474;-44
2022/07/09 07:27:28;;;;;;;5.47;3.20;;;19.90;97.20;;;;;;5052909;28;20938;-45
2022/07/09 07:29:54;;;;;;;5.60;2.60;;;19.80;96.90;;;;;;5051838;28;20458;-45
2022/07/09 07:32:21;;;;;;;4.27;2.43;;;19.90;96.80;;;;;;5051465;28;21034;-46
2022/07/09 07:34:49;;;;;;;4.53;2.50;;;19.70;96.60;;;;;;5051651;28;20434;-45
2022/07/09 07:37:15;;;;;;;5.17;3.03;;;19.80;96.50;;;;;;5051837;28;20826;-45
2022/07/09 07:39:42;;;;;;;5.47;2.93;;;20.10;96.60;;;;;;5051297;28;20478;-46
2022/07/09 07:42:09;;;;;;;5.50;2.60;;;20.10;96.50;;;;;;5051361;28;20435;-46
2022/07/09 07:44:36;;;;;;;4.10;2.73;;;20.40;96.50;;;;;;5033477;28;20450;-45
2022/07/09 07:47:02;;;;;;;4.40;2.53;;;19.90;96.10;;;;;;5051174;28;20440;-45
2022/07/09 07:49:29;;;;;;;5.70;2.60;;;20.60;96.20;;;;;;5050856;28;20455;-45
2022/07/09 07:51:57;;;;;;;5.63;2.53;;;20.40;96.00;;;;;;5051502;28;20428;-45
2022/07/09 07:54:23;;;;;;;6.50;2.50;;;20.40;95.80;;;;;;5054201;28;20814;-45
2022/07/09 07:56:51;;;;;;;6.60;2.40;;;20.40;95.90;;;;;;5055349;28;20432;-46
2022/07/09 07:59:18;;;;;;;5.63;3.30;;;20.00;95.60;;;;;;5054861;28;20471;-45
2022/07/09 08:01:45;;;;;;;4.43;2.40;;;20.20;95.70;;;;;;5054888;28;20499;-44
2022/07/09 08:04:12;;;;;;;4.83;2.40;;;20.30;95.80;;;;;;5055348;28;20446;-45
2022/07/09 08:06:38;;;;;;;5.07;2.40;;;20.30;95.80;;;;;;5054841;28;20478;-46
2022/07/09 08:09:06;;;;;;;5.67;2.47;;;20.10;95.70;;;;;;5054511;28;20405;-45
2022/07/09 08:11:33;;;;;;;6.17;2.60;;;19.80;95.80;;;;;;5054795;28;20441;-45
2022/07/09 08:14:00;;;;;;;5.70;2.90;;;19.50;95.80;;;;;;5055049;28;20438;-46
2022/07/09 08:16:26;;;;;;;5.10;2.83;;;19.80;96.10;;;;;;5036869;28;20894;-45
2022/07/09 08:18:53;;;;;;;4.40;2.80;;;19.80;96.30;;;;;;5054777;28;20449;-45
2022/07/09 08:21:20;;;;;;;7.67;4.07;;;19.90;96.40;;;;;;5054762;28;20843;-44
2022/07/09 08:23:53;;;;;;;6.40;2.83;;;19.90;96.40;;;;;;5054738;28;20427;-45
2022/07/09 08:26:22;;;;;;;6.40;2.77;;;20.10;96.40;;;;;;5054807;28;20561;-46
2022/07/09 08:28:49;;;;;;;5.80;2.60;;;20.30;96.30;;;;;;5054485;28;20804;-44
2022/07/09 08:31:16;;;;;;;7.73;3.13;;;20.20;95.90;;;;;;5054857;28;20446;-44
2022/07/09 08:33:43;;;;;;;7.97;2.43;;;20.50;95.80;;;;;;5054945;28;20790;-45
2022/07/09 08:36:10;;;;;;;5.13;3.10;;;20.60;95.70;;;;;;5054915;28;20442;-46
2022/07/09 08:38:36;;;;;;;4.30;2.40;;;20.70;95.40;;;;;;5054129;28;20435;-44
2022/07/09 08:41:05;;;;;;;5.83;3.00;;;20.20;95.00;;;;;;5054247;28;20502;-45
2022/07/09 08:43:35;;;;;;;4.37;2.50;;;20.70;95.20;;;;;;5054234;28;20466;-45
2022/07/09 08:46:02;;;;;;;4.70;2.50;;;20.70;95.30;;;;;;5054491;28;20483;-47
2022/07/09 08:48:29;;;;;;;6.93;2.70;;;20.70;95.30;;;;;;5054301;28;20432;-45
2022/07/09 08:50:57;;;;;;;5.50;2.60;;;20.70;95.30;;;;;;5054300;28;20460;-44
2022/07/09 08:53:27;;;;;;;4.83;2.80;;;20.70;95.30;;;;;;5053945;28;20439;-45
2022/07/09 08:55:54;;;;;;;4.60;2.23;;;20.90;95.30;;;;;;5054569;28;20504;-46
2022/07/09 08:58:20;;;;;;;6.20;3.40;;;21.00;95.20;;;;;;5054027;28;20437;-45
2022/07/09 09:00:49;;;;;;;6.40;2.37;;;21.20;95.10;;;;;;5053931;28;20971;-46
2022/07/09 09:03:17;;;;;;;3.30;2.43;;;21.30;95.00;;;;;;5054278;28;20436;-46
2022/07/09 09:05:43;;;;;;;5.87;2.90;;;21.30;94.80;;;;;;5053767;28;20507;-45
2022/07/09 09:08:21;;;;;;;6.97;3.20;;;21.20;94.70;;;;;;5053997;28;20438;-45
2022/07/09 09:10:48;;;;;;;3.63;2.47;;;21.10;94.70;;;;;;5053625;28;20489;-45
2022/07/09 09:13:16;;;;;;;4.80;2.50;;;21.00;94.80;;;;;;5053660;28;20433;-45
2022/07/09 09:15:43;;;;;;;6.63;2.87;;;20.90;94.90;;;;;;5053850;28;20440;-46
2022/07/09 09:18:11;;;;;;;4.93;2.80;;;21.00;94.90;;;;;;5053907;28;20746;-46
2022/07/09 09:20:45;;;;;;;6.60;4.23;;;20.90;95.00;;;;;;5053268;28;20471;-45
2022/07/09 09:23:17;;;;;;;6.47;3.10;;;20.90;95.10;;;;;;5035945;28;20440;-46
2022/07/09 09:25:43;;;;;;;7.70;3.63;;;20.80;95.20;;;;;;5053844;28;20477;-44
2022/07/09 09:28:12;;;;;;;4.30;2.47;;;20.80;95.30;;;;;;5053547;28;20444;-45
2022/07/09 09:30:42;;;;;;;4.60;2.80;;;20.70;96.10;;;;;;5053270;28;20565;-46
2022/07/09 09:33:10;;;;;;;7.50;3.80;;;20.60;96.90;;;;;;5053642;28;20443;-44
2022/07/09 09:35:43;;;;;;;4.80;2.70;;;20.50;97.10;;;;;;5053595;28;20444;-44
2022/07/09 09:38:10;;;;;;;3.73;2.80;;;20.50;97.70;;;;;;5035291;28;20452;-45
2022/07/09 09:40:37;;;;;;;10.00;3.80;;;20.20;98.40;;;;;;5053076;28;20467;-44
2022/07/09 09:43:04;;;;;;;5.73;3.63;;;20.30;99.00;;;;;;5035447;28;20546;-45
2022/07/09 09:45:33;;;;;;;6.23;4.13;;;20.30;99.80;;;;;;5053301;28;20486;-45
2022/07/09 09:48:00;;;;;;;7.27;3.30;;;20.00;99.90;;;;;;5053011;28;20432;-45
2022/07/09 09:50:29;;;;;;;4.63;2.87;;;20.30;99.90;;;;;;5053002;28;20541;-45
2022/07/09 09:52:55;;;;;;;6.73;3.20;;;20.40;99.90;;;;;;5053302;28;20464;-45
2022/07/09 09:55:23;;;;;;;7.83;3.20;;;20.40;99.90;;;;;;5052916;28;20436;-45
2022/07/09 09:57:50;;;;;;;6.80;3.00;;;20.30;99.90;;;;;;5052961;28;20431;-46
2022/07/09 10:00:17;;;;;;;4.33;3.23;;;20.60;99.90;;;;;;5053053;28;20806;-46
2022/07/09 10:02:47;;;;;;;4.50;3.53;;;20.70;99.90;;;;;;5053429;28;20431;-45
2022/07/09 10:05:14;;;;;;;5.63;3.30;;;20.40;99.90;;;;;;5053164;28;20485;-46
2022/07/09 10:07:44;;;;;;;6.37;2.80;;;20.90;99.90;;;;;;5052950;28;20947;-45
2022/07/09 10:10:18;;;;;;;8.23;4.23;;;21.10;99.90;;;;;;5052601;28;20456;-46
2022/07/09 10:12:45;;;;;;;4.73;3.70;;;21.30;99.90;;;;;;5052778;28;20794;-45
2022/07/09 10:15:21;;;;;;;5.93;3.67;;;21.50;99.90;;;;;;5052673;28;20516;-45
2022/07/09 10:17:48;;;;;;;4.67;3.27;;;21.70;99.90;;;;;;5052698;28;20929;-45
2022/07/09 10:20:15;;;;;;;6.47;4.10;;;21.70;99.70;;;;;;5052699;28;20453;-45
2022/07/09 10:22:45;;;;;;;6.70;3.60;;;21.90;99.40;;;;;;5052800;28;20429;-45
2022/07/09 10:25:15;;;;;;;6.53;3.60;;;21.90;99.10;;;;;;5052714;28;20525;-45
2022/07/09 10:27:43;;;;;;;6.73;3.50;;;21.90;98.70;;;;;;5052864;28;20981;-44
2022/07/09 10:30:23;;;;;;;6.63;3.40;;;22.00;98.40;;;;;;5052327;28;20503;-45
2022/07/09 10:33:02;;;;;;;5.07;3.57;;;22.20;97.90;;;;;;5052341;28;20441;-45
2022/07/09 10:35:29;;;;;;;6.17;3.80;;;22.30;97.20;;;;;;5052805;28;20430;-46
2022/07/09 10:37:57;;;;;;;10.73;3.57;;;22.50;97.20;;;;;;5052455;28;20442;-46
2022/07/09 10:40:27;;;;;;;6.50;4.13;;;22.50;96.90;;;;;;5051585;28;20466;-45
2022/07/09 10:43:03;;;;;;;5.37;3.70;;;22.60;96.50;;;;;;5052939;28;20456;-46
2022/07/09 10:45:37;;;;;;;6.53;3.83;;;22.80;96.40;;;;;;5052974;28;20438;-44
2022/07/09 10:48:06;;;;;;;8.10;3.30;;;22.90;96.40;;;;;;5053651;28;20462;-45
2022/07/09 10:50:36;;;;;;;3.27;2.37;;;22.90;96.00;;;;;;5052697;28;21089;-46
2022/07/09 10:53:04;;;;;;;7.33;2.90;;;22.80;95.60;;;;;;5052362;28;20438;-45
2022/07/09 10:55:32;;;;;;;4.70;2.60;;;22.80;95.30;;;;;;5051946;28;20431;-46
2022/07/09 10:57:59;;;;;;;5.03;3.20;;;22.60;94.80;;;;;;5051974;28;20437;-45
2022/07/09 11:00:27;;;;;;;7.47;3.10;;;22.60;94.60;;;;;;5051387;28;20536;-46
2022/07/09 11:02:56;;;;;;;5.60;3.20;;;22.60;94.60;;;;;;5051813;28;20865;-46
2022/07/09 11:05:23;;;;;;;3.60;2.40;;;22.70;94.20;;;;;;5052063;28;20888;-47
2022/07/09 11:08:05;;;;;;;5.17;2.70;;;22.70;93.80;;;;;;5051429;28;20478;-45
2022/07/09 11:10:32;;;;;;;6.10;2.97;;;22.70;93.40;;;;;;5051401;28;20455;-45
2022/07/09 11:13:01;;;;;;;4.97;2.60;;;22.70;93.30;;;;;;5033675;28;20978;-45
2022/07/09 11:15:29;;;;;;;6.20;3.23;;;22.80;93.40;;;;;;5051273;28;20445;-45
2022/07/09 11:18:01;;;;;;;4.13;2.80;;;22.80;93.10;;;;;;5051432;28;20524;-46
2022/07/09 11:20:28;;;;;;;6.27;2.60;;;22.80;93.00;;;;;;5050786;28;20453;-45
2022/07/09 11:22:56;;;;;;;4.47;2.20;;;22.80;92.60;;;;;;5051435;28;20440;-45
2022/07/09 11:25:26;;;;;;;5.33;2.40;;;22.70;92.40;;;;;;5051183;28;20488;-46
2022/07/09 11:27:54;;;;;;;4.37;2.03;;;22.70;92.10;;;;;;5054834;28;20486;-46
2022/07/09 11:30:21;;;;;;;4.70;2.63;;;22.60;92.00;;;;;;5057426;28;20932;-45
2022/07/09 11:32:48;;;;;;;4.33;2.60;;;23.00;91.80;;;;;;5057892;28;20780;-46
2022/07/09 11:35:25;;;;;;;3.20;2.00;;;23.00;91.20;;;;;;5057987;28;20440;-46
2022/07/09 11:37:52;;;;;;;3.30;2.30;;;23.10;90.90;;;;;;5058100;28;20509;-45
2022/07/09 11:40:20;;;;;;;2.60;1.60;;;23.20;91.00;;;;;;5039989;28;20472;-46
2022/07/09 11:42:49;;;;;;;5.33;2.00;;;23.20;90.60;;;;;;5058002;28;20436;-45
2022/07/09 11:45:16;;;;;;;2.57;1.93;;;23.30;90.30;;;;;;5057728;28;20542;-46
2022/07/09 11:47:42;;;;;;;3.43;1.73;;;23.50;90.10;;;;;;5057304;28;20983;-46
2022/07/09 11:50:11;;;;;;;5.67;3.40;;;23.60;89.70;;;;;;5057095;28;20771;-46
2022/07/09 11:52:44;;;;;;;3.90;2.20;;;23.70;88.70;;;;;;5057651;28;20739;-45
2022/07/09 11:55:14;;;;;;;3.47;2.17;;;23.80;88.40;;;;;;5057706;28;20437;-45
2022/07/09 11:57:53;;;;;;;3.57;2.13;;;23.90;88.10;;;;;;5057981;28;20490;-45
2022/07/09 12:00:25;;;;;;;2.50;1.83;;;24.10;87.50;;;;;;5057137;28;21038;-46
2022/07/09 12:02:52;;;;;;;5.60;2.13;;;24.10;86.70;;;;;;5039818;28;20444;-46
2022/07/09 12:05:30;;;;;;;3.73;2.30;;;24.00;87.40;;;;;;5057419;28;20433;-46
2022/07/09 12:07:58;;;;;;;6.67;2.37;;;24.00;87.20;;;;;;5057574;28;20515;-45
2022/07/09 12:10:29;;;;;;;3.23;1.60;;;24.00;87.10;;;;;;5057345;28;20448;-46
2022/07/09 12:12:58;;;;;;;3.00;1.60;;;23.80;87.00;;;;;;5039210;28;20472;-46
2022/07/09 12:15:25;;;;;;;3.63;1.70;;;23.80;87.20;;;;;;5038815;28;20512;-45
2022/07/09 12:17:54;;;;;;;2.87;1.93;;;23.70;87.10;;;;;;5057386;28;20441;-46
2022/07/09 12:20:20;;;;;;;4.50;2.00;;;23.70;87.10;;;;;;5057062;28;21017;-46
2022/07/09 12:22:47;;;;;;;5.30;1.80;;;23.70;87.30;;;;;;5057607;28;20431;-45
2022/07/09 12:25:14;;;;;;;4.23;2.50;;;23.70;87.10;;;;;;5057323;28;20443;-46
2022/07/09 12:27:40;;;;;;;3.77;1.73;;;23.60;87.40;;;;;;5057241;28;20517;-45
2022/07/09 12:30:10;;;;;;;2.97;1.90;;;23.50;87.40;;;;;;5056897;28;20453;-46
2022/07/09 12:32:36;;;;;;;3.83;2.20;;;23.40;88.70;;;;;;5057249;28;20959;-46
2022/07/09 12:35:04;;;;;;;5.63;2.07;;;23.20;90.50;;;;;;5057321;28;20435;-45
2022/07/09 12:37:31;;;;;;;3.57;1.90;;;23.20;90.90;;;;;;5057017;28;20503;-45
2022/07/09 12:39:57;;;;;;;3.30;1.90;;;23.20;91.10;;;;;;5072425;22;20494;-53
2022/07/09 12:42:24;;;;;;;11.73;2.33;;;23.10;90.70;;;;;;5072890;28;20432;-54
2022/07/09 12:44:50;;;;;;;5.27;2.30;;;23.10;90.40;;;;;;5073538;28;20440;-54
2022/07/09 12:47:18;;;;;;;3.47;1.77;;;23.50;90.40;;;;;;5073134;28;20514;-53
2022/07/09 12:49:45;;;;;;;3.50;2.17;;;23.20;90.40;;;;;;5074114;28;20516;-52